createdAt,value
2023-03-11T00:01:54.606Z,45.43
2023-03-11T00:12:01.489Z,45.39
2023-03-11T00:22:08.709Z,45.51
2023-03-11T00:32:16.133Z,45.31
2023-03-11T00:42:22.796Z,45.08
2023-03-11T00:52:29.904Z,44.98
2023-03-11T01:02:37.235Z,44.53
2023-03-11T01:12:44.225Z,44.70
2023-03-11T01:22:51.095Z,44.88
2023-03-11T01:32:58.294Z,45.14
2023-03-11T01:43:05.206Z,44.92
2023-03-11T01:53:11.986Z,44.78
2023-03-11T02:03:19.260Z,44.54
2023-03-11T02:13:26.456Z,44.46
2023-03-11T02:23:33.202Z,44.34
2023-03-11T02:33:40.066Z,44.51
2023-03-11T02:43:47.321Z,44.60
2023-03-11T02:53:54.143Z,44.48
2023-03-11T03:04:01.503Z,44.31
2023-03-11T03:14:08.549Z,43.93
2023-03-11T03:24:15.592Z,43.90
2023-03-11T03:34:22.709Z,43.90
2023-03-11T03:44:29.356Z,44.26
2023-03-11T03:54:36.537Z,44.36
2023-03-11T04:04:44.099Z,43.97
2023-03-11T04:14:51.343Z,43.94
2023-03-11T04:24:57.854Z,43.74
2023-03-11T04:35:04.752Z,43.82
2023-03-11T04:45:11.685Z,43.80
2023-03-11T04:55:19.016Z,44.07
2023-03-11T05:05:26.276Z,43.91
2023-03-11T05:15:32.839Z,43.82
2023-03-11T05:25:39.901Z,43.98
2023-03-11T05:35:47.179Z,44.12
2023-03-11T05:45:54.027Z,44.26
2023-03-11T05:56:01.198Z,44.55
2023-03-11T06:06:08.254Z,45.71
2023-03-11T06:16:15.389Z,46.45
2023-03-11T06:26:22.386Z,46.32
2023-03-11T06:36:29.329Z,46.22
2023-03-11T06:46:36.659Z,46.34
2023-03-11T06:56:44.160Z,46.15
2023-03-11T07:06:51.361Z,46.08
2023-03-11T07:16:58.709Z,46.06
2023-03-11T07:27:05.680Z,46.00
2023-03-11T07:37:12.778Z,45.90
2023-03-11T07:47:19.741Z,45.67
2023-03-11T07:57:26.753Z,45.78
2023-03-11T08:07:34.142Z,45.73
2023-03-11T08:17:41.507Z,45.68
2023-03-11T08:27:48.721Z,45.68
2023-03-11T08:37:56.194Z,45.58
2023-03-11T08:48:03.632Z,45.43
2023-03-11T08:58:11.068Z,45.41
2023-03-11T09:08:18.186Z,45.35
2023-03-11T09:18:25.041Z,45.28
2023-03-11T09:28:32.278Z,45.17
2023-03-11T09:38:39.132Z,45.19
2023-03-11T09:48:46.119Z,45.13
2023-03-11T09:58:53.057Z,45.22
2023-03-11T10:09:00.495Z,45.13
2023-03-11T10:19:07.262Z,45.08
2023-03-11T10:29:14.466Z,45.09
2023-03-11T10:39:21.481Z,45.06
2023-03-11T10:49:28.481Z,45.08
2023-03-11T10:59:35.419Z,45.11
2023-03-11T11:09:41.577Z,45.13
2023-03-11T11:19:48.511Z,45.03
2023-03-11T11:29:56.056Z,44.98
2023-03-11T11:40:03.782Z,44.94
2023-03-11T11:50:10.643Z,44.96
2023-03-11T12:00:17.751Z,44.87
2023-03-11T12:10:24.807Z,44.85
2023-03-11T12:20:32.051Z,44.78
2023-03-11T12:30:39.210Z,44.70
2023-03-11T12:40:47.089Z,44.68
2023-03-11T12:50:54.251Z,44.66
2023-03-11T13:01:01.226Z,44.63
2023-03-11T13:11:07.958Z,44.57
2023-03-11T13:21:15.190Z,44.48
2023-03-11T13:31:22.559Z,44.40
2023-03-11T13:41:30.136Z,44.38
2023-03-11T13:51:37.606Z,44.37
2023-03-11T14:01:44.363Z,44.32
2023-03-11T14:11:51.461Z,44.27
2023-03-11T14:21:58.383Z,44.12
2023-03-11T14:32:05.378Z,44.03
2023-03-11T14:42:12.425Z,44.03
2023-03-11T14:52:19.309Z,44.03
2023-03-11T15:02:26.587Z,43.94
2023-03-11T15:12:33.824Z,43.92
2023-03-11T15:22:40.810Z,43.83
2023-03-11T15:32:47.511Z,43.73
2023-03-11T15:42:55.143Z,43.70
2023-03-11T15:53:01.794Z,43.76
2023-03-11T16:03:08.926Z,43.74
2023-03-11T16:13:15.958Z,43.66
2023-03-11T16:23:22.722Z,43.60
2023-03-11T16:33:29.106Z,43.48
2023-03-11T16:43:35.909Z,43.38
2023-03-11T16:53:42.982Z,43.53
2023-03-11T17:03:50.156Z,43.57
2023-03-11T17:14:13.648Z,43.56
2023-03-11T17:24:09.361Z,43.55
2023-03-11T17:34:16.335Z,43.50
2023-03-11T17:44:23.503Z,43.29
2023-03-11T17:54:30.573Z,43.23
2023-03-11T18:04:37.467Z,43.99
2023-03-11T18:14:44.567Z,45.05
2023-03-11T18:24:51.197Z,45.08
2023-03-11T18:34:58.259Z,45.01
2023-03-11T18:45:05.527Z,45.33
2023-03-11T18:55:12.523Z,45.09
2023-03-11T19:05:19.890Z,44.88
2023-03-11T19:15:27.872Z,44.74
2023-03-11T19:25:34.652Z,44.85
2023-03-11T19:35:41.962Z,44.88
2023-03-11T19:45:49.096Z,45.06
2023-03-11T19:55:55.981Z,44.74
2023-03-11T20:06:03.301Z,44.34
2023-03-11T20:16:10.341Z,44.29
2023-03-11T20:26:17.816Z,44.19
2023-03-11T20:36:25.202Z,44.35
2023-03-11T20:46:32.245Z,44.42
2023-03-11T20:56:39.131Z,44.57
2023-03-11T21:06:45.950Z,44.35
2023-03-11T21:16:53.544Z,43.96
2023-03-11T21:27:01.592Z,43.81
2023-03-11T21:37:09.455Z,43.89
2023-03-11T21:47:16.509Z,43.87
2023-03-11T21:57:23.592Z,43.94
2023-03-11T22:07:30.315Z,43.76
2023-03-11T22:17:37.584Z,43.66
2023-03-11T22:27:44.610Z,43.55
2023-03-11T22:37:51.875Z,43.50
2023-03-11T22:47:58.503Z,43.30
2023-03-11T22:58:05.686Z,43.53
2023-03-11T23:08:13.264Z,43.31
2023-03-11T23:18:19.809Z,42.95
2023-03-11T23:28:27.058Z,43.10
2023-03-11T23:38:34.062Z,42.95
2023-03-11T23:48:41.566Z,42.88
2023-03-11T23:58:48.814Z,43.03
